createdAt,value
2023-04-11T00:00:58.837Z,24.21
2023-04-11T00:03:04.168Z,24.21
2023-04-11T00:05:10.151Z,24.2
2023-04-11T00:07:15.191Z,24.2
2023-04-11T00:09:20.228Z,24.19
2023-04-11T00:11:25.263Z,24.2
2023-04-11T00:13:30.489Z,24.19
2023-04-11T00:15:35.533Z,24.2
2023-04-11T00:17:40.640Z,24.19
2023-04-11T00:19:45.911Z,24.19
2023-04-11T00:21:50.961Z,24.19
2023-04-11T00:23:56.054Z,24.18
2023-04-11T00:26:01.140Z,24.15
2023-04-11T00:28:06.261Z,24.16
2023-04-11T00:30:11.400Z,24.14
2023-04-11T00:32:16.539Z,24.11
2023-04-11T00:34:21.610Z,24.08
2023-04-11T00:36:26.754Z,24.04
2023-04-11T00:38:32.134Z,24.01
2023-04-11T00:40:37.247Z,23.98
2023-04-11T00:42:42.369Z,23.95
2023-04-11T00:44:47.409Z,23.92
2023-04-11T00:46:52.422Z,23.89
2023-04-11T00:48:57.750Z,23.86
2023-04-11T00:51:03.036Z,23.85
2023-04-11T00:53:08.044Z,23.85
2023-04-11T00:55:13.077Z,23.83
2023-04-11T00:57:18.115Z,23.83
2023-04-11T00:59:23.171Z,23.81
2023-04-11T01:01:28.299Z,23.81
2023-04-11T01:03:33.540Z,23.82
2023-04-11T01:05:39.250Z,23.81
2023-04-11T01:07:44.348Z,23.78
2023-04-11T01:09:49.498Z,23.75
2023-04-11T01:11:54.676Z,23.74
2023-04-11T01:13:59.701Z,23.71
2023-04-11T01:16:04.708Z,23.69
2023-04-11T01:18:09.879Z,23.67
2023-04-11T01:20:14.978Z,23.66
2023-04-11T01:22:20.081Z,23.66
2023-04-11T01:24:25.122Z,23.64
2023-04-11T01:26:30.213Z,23.62
2023-04-11T01:28:35.354Z,23.6
2023-04-11T01:30:40.447Z,23.59
2023-04-11T01:32:45.737Z,23.57
2023-04-11T01:34:50.994Z,23.55
2023-04-11T01:36:56.020Z,23.53
2023-04-11T01:39:01.032Z,23.52
2023-04-11T01:41:06.089Z,23.49
2023-04-11T01:43:11.155Z,23.49
2023-04-11T01:45:16.294Z,23.47
2023-04-11T01:47:21.493Z,23.45
2023-04-11T01:49:26.725Z,23.46
2023-04-11T01:51:31.761Z,23.46
2023-04-11T01:53:36.820Z,23.46
2023-04-11T01:55:41.977Z,23.48
2023-04-11T01:57:47.063Z,23.44
2023-04-11T01:59:52.112Z,23.42
2023-04-11T02:01:57.280Z,23.4
2023-04-11T02:04:02.735Z,23.38
2023-04-11T02:06:08.105Z,23.36
2023-04-11T02:08:13.182Z,23.36
2023-04-11T02:10:18.221Z,23.35
2023-04-11T02:12:23.254Z,23.34
2023-04-11T02:14:28.401Z,23.31
2023-04-11T02:16:33.398Z,23.28
2023-04-11T02:18:38.477Z,23.28
2023-04-11T02:20:43.511Z,23.27
2023-04-11T02:22:48.629Z,23.27
2023-04-11T02:24:53.681Z,23.26
2023-04-11T02:26:58.716Z,23.23
2023-04-11T02:29:03.809Z,23.23
2023-04-11T02:31:08.886Z,23.21
2023-04-11T02:33:14.375Z,23.22
2023-04-11T02:35:19.573Z,23.21
2023-04-11T02:37:24.607Z,23.19
2023-04-11T02:39:29.641Z,23.18
2023-04-11T02:41:34.699Z,23.16
2023-04-11T02:43:39.741Z,23.15
2023-04-11T02:45:44.861Z,23.13
2023-04-11T02:47:49.979Z,23.12
2023-04-11T02:49:55.176Z,23.13
2023-04-11T02:52:00.245Z,23.12
2023-04-11T02:54:05.315Z,23.11
2023-04-11T02:56:10.340Z,23.1
2023-04-11T02:58:15.355Z,23.09
2023-04-11T03:00:20.727Z,23.08
2023-04-11T03:02:25.943Z,23.08
2023-04-11T03:04:31.929Z,23.09
2023-04-11T03:06:37.258Z,23.09
2023-04-11T03:08:42.288Z,23.09
2023-04-11T03:10:47.301Z,23.08
2023-04-11T03:12:52.481Z,23.07
2023-04-11T03:14:57.512Z,23.06
2023-04-11T03:17:02.555Z,23.05
2023-04-11T03:19:07.656Z,23.02
2023-04-11T03:21:12.741Z,23.01
2023-04-11T03:23:17.772Z,23.01
2023-04-11T03:25:22.852Z,22.99
2023-04-11T03:27:27.912Z,23
2023-04-11T03:29:32.964Z,23.01
2023-04-11T03:31:37.945Z,23.02
2023-04-11T03:33:43.146Z,23.02
2023-04-11T03:35:48.121Z,23.01
2023-04-11T03:37:53.257Z,23.01
2023-04-11T03:39:58.324Z,23
2023-04-11T03:42:03.345Z,23
2023-04-11T03:44:08.334Z,22.98
2023-04-11T03:46:19.636Z,22.96
2023-04-11T03:48:24.834Z,22.97
2023-04-11T03:50:29.917Z,22.97
2023-04-11T03:52:35.040Z,22.97
2023-04-11T03:54:40.035Z,22.96
2023-04-11T03:56:45.170Z,22.96
2023-04-11T03:58:50.158Z,22.96
2023-04-11T04:00:55.262Z,22.95
2023-04-11T04:03:00.354Z,22.95
2023-04-11T04:05:06.316Z,22.93
2023-04-11T04:07:11.800Z,22.91
2023-04-11T04:09:16.840Z,22.9
2023-04-11T04:11:21.892Z,22.89
2023-04-11T04:13:26.919Z,22.88
2023-04-11T04:15:31.919Z,22.85
2023-04-11T04:17:36.903Z,22.84
2023-04-11T04:19:42.036Z,22.83
2023-04-11T04:21:47.110Z,22.83
2023-04-11T04:23:52.120Z,22.81
2023-04-11T04:25:57.704Z,22.82
2023-04-11T04:28:02.801Z,22.8
2023-04-11T04:30:07.781Z,22.8
2023-04-11T04:32:12.800Z,22.79
2023-04-11T04:34:17.794Z,22.78
2023-04-11T04:36:22.782Z,22.77
2023-04-11T04:38:27.876Z,22.76
2023-04-11T04:40:32.932Z,22.75
2023-04-11T04:42:37.965Z,22.73
2023-04-11T04:44:42.973Z,22.72
2023-04-11T04:46:47.988Z,22.7
2023-04-11T04:48:52.975Z,22.68
2023-04-11T04:50:58.001Z,22.67
2023-04-11T04:53:03.117Z,22.65
2023-04-11T04:55:08.105Z,22.62
2023-04-11T04:57:13.188Z,22.63
2023-04-11T04:59:18.175Z,22.62
2023-04-11T05:01:23.229Z,22.61
2023-04-11T05:03:28.469Z,22.61
2023-04-11T05:05:34.024Z,22.58
2023-04-11T05:07:38.979Z,22.59
2023-04-11T05:09:43.997Z,22.6
2023-04-11T05:11:49.019Z,22.57
2023-04-11T05:13:54.331Z,22.58
2023-04-11T05:16:00.351Z,22.58
2023-04-11T05:18:05.380Z,22.55
2023-04-11T05:20:10.699Z,22.55
2023-04-11T05:22:15.738Z,22.56
2023-04-11T05:24:20.751Z,22.56
2023-04-11T05:26:25.769Z,22.56
2023-04-11T05:28:30.785Z,22.54
2023-04-11T05:30:35.818Z,22.54
2023-04-11T05:32:41.088Z,22.54
2023-04-11T05:34:46.350Z,22.55
2023-04-11T05:36:51.376Z,22.55
2023-04-11T05:38:56.445Z,22.55
2023-04-11T05:41:01.430Z,22.53
2023-04-11T05:43:06.542Z,22.53
2023-04-11T05:45:11.609Z,22.51
2023-04-11T05:47:16.799Z,22.5
2023-04-11T05:49:21.920Z,22.5
2023-04-11T05:51:27.023Z,22.51
2023-04-11T05:53:32.013Z,22.53
2023-04-11T05:55:37.171Z,22.56
2023-04-11T05:57:42.210Z,22.56
2023-04-11T05:59:47.228Z,22.58
2023-04-11T06:01:52.262Z,22.64
2023-04-11T06:03:57.972Z,22.66
2023-04-11T06:06:04.401Z,22.64
2023-04-11T06:08:09.504Z,22.63
2023-04-11T06:10:14.497Z,22.63
2023-04-11T06:12:19.610Z,22.61
2023-04-11T06:14:24.575Z,22.6
2023-04-11T06:16:29.550Z,22.59
2023-04-11T06:18:34.781Z,22.56
2023-04-11T06:20:39.939Z,22.56
2023-04-11T06:22:44.950Z,22.53
2023-04-11T06:24:49.925Z,22.54
2023-04-11T06:26:54.914Z,22.53
2023-04-11T06:28:59.905Z,22.54
2023-04-11T06:31:04.928Z,22.52
2023-04-11T06:33:10.396Z,22.51
2023-04-11T06:35:15.604Z,22.52
2023-04-11T06:37:20.589Z,22.51
2023-04-11T06:39:25.567Z,22.52
2023-04-11T06:41:30.596Z,22.52
2023-04-11T06:43:35.607Z,22.51
2023-04-11T06:45:40.598Z,22.52
2023-04-11T06:47:45.718Z,22.53
2023-04-11T06:49:50.914Z,22.53
2023-04-11T06:51:56.067Z,22.53
2023-04-11T06:54:01.114Z,22.53
2023-04-11T06:56:06.189Z,22.54
2023-04-11T06:58:11.272Z,22.55
2023-04-11T07:00:16.227Z,22.54
2023-04-11T07:02:21.363Z,22.54
2023-04-11T07:04:26.859Z,22.55
2023-04-11T07:06:32.349Z,22.54
2023-04-11T07:08:37.372Z,22.55
2023-04-11T07:10:42.352Z,22.53
2023-04-11T07:12:47.393Z,22.55
2023-04-11T07:14:52.413Z,22.54
2023-04-11T07:16:57.376Z,22.53
2023-04-11T07:19:02.464Z,22.55
2023-04-11T07:21:07.516Z,22.54
2023-04-11T07:23:12.574Z,22.56
2023-04-11T07:25:17.579Z,22.57
2023-04-11T07:27:22.698Z,22.57
2023-04-11T07:29:27.746Z,22.55
2023-04-11T07:31:32.791Z,22.57
2023-04-11T07:33:37.952Z,22.59
2023-04-11T07:35:43.037Z,22.6
2023-04-11T07:37:48.219Z,22.61
2023-04-11T07:39:53.280Z,22.6
2023-04-11T07:41:58.267Z,22.62
2023-04-11T07:44:03.322Z,22.62
2023-04-11T07:46:08.445Z,22.62
2023-04-11T07:48:13.598Z,22.61
2023-04-11T07:50:18.646Z,22.62
2023-04-11T07:52:23.761Z,22.61
2023-04-11T07:54:28.806Z,22.62
2023-04-11T07:56:33.905Z,22.61
2023-04-11T07:58:38.937Z,22.62
2023-04-11T08:00:43.960Z,22.63
2023-04-11T08:02:49.168Z,22.61
2023-04-11T08:04:55.002Z,22.62
2023-04-11T08:07:00.500Z,22.63
2023-04-11T08:09:05.509Z,22.64
2023-04-11T08:11:10.639Z,22.64
2023-04-11T08:13:15.664Z,22.63
2023-04-11T08:15:20.650Z,22.63
2023-04-11T08:17:28.432Z,22.63
2023-04-11T08:19:34.007Z,22.62
2023-04-11T08:21:39.005Z,22.64
2023-04-11T08:23:44.090Z,22.65
2023-04-11T08:25:50.056Z,22.65
2023-04-11T08:27:55.043Z,22.64
2023-04-11T08:30:00.052Z,22.63
2023-04-11T08:32:05.048Z,22.64
2023-04-11T08:34:10.021Z,22.68
2023-04-11T08:36:15.153Z,22.72
2023-04-11T08:38:20.608Z,22.79
2023-04-11T08:40:26.944Z,22.85
2023-04-11T08:42:32.363Z,22.92
2023-04-11T08:44:37.336Z,22.99
2023-04-11T08:46:42.334Z,23.1
2023-04-11T08:48:47.430Z,23.19
2023-04-11T08:50:52.509Z,23.26
2023-04-11T08:52:57.492Z,23.31
2023-04-11T08:55:02.556Z,23.34
2023-04-11T08:57:07.559Z,23.35
2023-04-11T08:59:12.551Z,23.39
2023-04-11T09:01:17.530Z,23.4
2023-04-11T09:03:22.667Z,23.43
2023-04-11T09:05:28.164Z,23.46
2023-04-11T09:07:33.177Z,23.42
2023-04-11T09:09:38.186Z,23.39
2023-04-11T09:11:43.173Z,23.33
2023-04-11T09:13:48.217Z,23.28
2023-04-11T09:15:53.264Z,23.25
2023-04-11T09:18:00.479Z,23.22
2023-04-11T09:20:06.081Z,23.22
2023-04-11T09:22:11.052Z,23.2
2023-04-11T09:24:16.028Z,23.23
2023-04-11T09:26:22.131Z,23.3
2023-04-11T09:28:28.161Z,23.4
2023-04-11T09:30:33.128Z,23.48
2023-04-11T09:32:38.207Z,23.57
2023-04-11T09:34:43.316Z,23.64
2023-04-11T09:36:48.332Z,23.69
2023-04-11T09:38:53.292Z,23.73
2023-04-11T09:40:58.284Z,23.73
2023-04-11T09:43:03.408Z,23.8
2023-04-11T09:45:08.510Z,23.86
2023-04-11T09:47:13.540Z,23.9
2023-04-11T09:49:18.744Z,23.93
2023-04-11T09:51:35.571Z,23.97
2023-04-11T09:53:41.269Z,24.01
2023-04-11T09:55:46.323Z,24.04
2023-04-11T09:57:51.341Z,24.01
2023-04-11T09:59:56.359Z,23.99
2023-04-11T10:02:01.431Z,23.99
2023-04-11T10:04:06.821Z,23.96
2023-04-11T10:06:11.895Z,23.99
2023-04-11T10:08:16.944Z,24.04
2023-04-11T10:10:21.966Z,24.04
2023-04-11T10:12:27.044Z,24.05
2023-04-11T10:14:32.021Z,24.07
2023-04-11T10:16:37.121Z,24.1
2023-04-11T10:18:42.328Z,24.13
2023-04-11T10:20:47.385Z,24.14
2023-04-11T10:22:52.363Z,24.16
2023-04-11T10:24:57.330Z,24.18
2023-04-11T10:27:02.407Z,24.18
2023-04-11T10:29:07.481Z,24.2
2023-04-11T10:31:12.576Z,24.2
2023-04-11T10:33:17.857Z,24.21
2023-04-11T10:35:25.668Z,24.22
2023-04-11T10:37:30.910Z,24.25
2023-04-11T10:39:36.018Z,24.26
2023-04-11T10:41:40.974Z,24.25
2023-04-11T10:43:45.965Z,24.26
2023-04-11T10:45:51.083Z,24.27
2023-04-11T10:47:56.154Z,24.26
2023-04-11T10:50:01.423Z,24.27
2023-04-11T10:52:06.376Z,24.3
2023-04-11T10:54:11.269Z,24.33
2023-04-11T10:56:16.665Z,24.35
2023-04-11T10:58:21.753Z,24.4
2023-04-11T11:00:26.842Z,24.37
2023-04-11T11:02:32.762Z,24.35
2023-04-11T11:04:38.713Z,24.37
2023-04-11T11:06:47.667Z,24.38
2023-04-11T11:09:01.377Z,24.4
2023-04-11T11:11:06.494Z,24.4
2023-04-11T11:13:11.492Z,24.4
2023-04-11T11:15:16.482Z,24.4
2023-04-11T11:17:21.505Z,24.41
2023-04-11T11:19:26.712Z,24.41
2023-04-11T11:21:31.711Z,24.34
2023-04-11T11:23:36.962Z,24.29
2023-04-11T11:25:41.953Z,24.25
2023-04-11T11:27:46.987Z,24.23
2023-04-11T11:29:52.057Z,24.22
2023-04-11T11:31:57.760Z,24.2
2023-04-11T11:34:13.704Z,24.19
2023-04-11T11:36:28.153Z,24.21
2023-04-11T11:38:33.255Z,24.26
2023-04-11T11:40:38.288Z,24.28
2023-04-11T11:42:43.406Z,24.31
2023-04-11T11:44:48.504Z,24.33
2023-04-11T11:46:53.654Z,24.31
2023-04-11T11:48:58.813Z,24.31
2023-04-11T11:51:04.943Z,24.33
2023-04-11T11:53:10.152Z,24.35
2023-04-11T11:55:15.155Z,24.35
2023-04-11T11:57:20.211Z,24.39
2023-04-11T11:59:25.602Z,24.37
2023-04-11T12:01:30.664Z,24.39
2023-04-11T12:03:35.875Z,24.39
2023-04-11T12:05:41.175Z,24.42
2023-04-11T12:07:46.143Z,24.43
2023-04-11T12:09:51.143Z,24.43
2023-04-11T12:11:56.507Z,24.44
2023-04-11T12:14:01.526Z,24.45
2023-04-11T12:16:06.710Z,24.46
2023-04-11T12:18:11.904Z,24.47
2023-04-11T12:20:17.151Z,24.5
2023-04-11T12:22:22.331Z,24.52
2023-04-11T12:24:27.361Z,24.51
2023-04-11T12:26:32.419Z,24.46
2023-04-11T12:28:37.701Z,24.43
2023-04-11T12:30:42.815Z,24.42
2023-04-11T12:32:47.880Z,24.39
2023-04-11T12:34:53.480Z,24.4
2023-04-11T12:36:58.496Z,24.42
2023-04-11T12:39:03.492Z,24.39
2023-04-11T12:41:29.974Z,24.37
2023-04-11T12:43:36.685Z,24.37
2023-04-11T12:45:41.677Z,24.36
2023-04-11T12:47:46.995Z,24.36
2023-04-11T12:49:52.255Z,24.38
2023-04-11T12:51:57.278Z,24.38
2023-04-11T12:54:02.265Z,24.38
2023-04-11T12:56:07.325Z,24.37
2023-04-11T12:58:12.329Z,24.41
2023-04-11T13:00:17.408Z,24.38
2023-04-11T13:02:22.587Z,24.39
2023-04-11T13:04:28.360Z,24.39
2023-04-11T13:06:33.707Z,24.42
2023-04-11T13:08:38.722Z,24.41
2023-04-11T13:10:43.731Z,24.43
2023-04-11T13:12:48.700Z,24.42
2023-04-11T13:14:53.723Z,24.42
2023-04-11T13:16:58.724Z,24.42
2023-04-11T13:19:03.706Z,24.41
2023-04-11T13:21:08.768Z,24.42
2023-04-11T13:23:16.501Z,24.44
2023-04-11T13:25:21.610Z,24.42
2023-04-11T13:27:26.666Z,24.43
2023-04-11T13:29:31.761Z,24.42
2023-04-11T13:31:36.802Z,24.43
2023-04-11T13:33:41.985Z,24.42
2023-04-11T13:35:47.010Z,24.41
2023-04-11T13:37:52.036Z,24.41
2023-04-11T13:39:57.031Z,24.42
2023-04-11T13:42:02.086Z,24.42
2023-04-11T13:44:07.075Z,24.43
2023-04-11T13:46:12.267Z,24.48
2023-04-11T13:48:17.567Z,24.48
2023-04-11T13:50:22.566Z,24.47
2023-04-11T13:52:27.560Z,24.5
2023-04-11T13:54:32.566Z,24.56
2023-04-11T13:56:38.067Z,24.58
2023-04-11T13:58:43.240Z,24.52
2023-04-11T14:00:48.335Z,24.5
2023-04-11T14:02:53.616Z,24.53
2023-04-11T14:04:59.339Z,24.57
2023-04-11T14:07:04.423Z,24.58
2023-04-11T14:09:09.393Z,24.64
2023-04-11T14:11:14.380Z,24.68
2023-04-11T14:13:19.415Z,24.71
2023-04-11T14:15:24.433Z,24.72
2023-04-11T14:17:29.485Z,24.76
2023-04-11T14:19:34.578Z,24.75
2023-04-11T14:21:39.883Z,24.76
2023-04-11T14:23:44.895Z,24.75
2023-04-11T14:25:49.918Z,24.75
2023-04-11T14:27:54.956Z,24.77
2023-04-11T14:29:59.963Z,24.81
2023-04-11T14:32:05.155Z,24.83
2023-04-11T14:34:10.639Z,24.92
2023-04-11T14:36:15.626Z,24.96
2023-04-11T14:38:20.613Z,24.95
2023-04-11T14:40:25.716Z,24.98
2023-04-11T14:42:30.803Z,24.95
2023-04-11T14:44:35.800Z,24.94
2023-04-11T14:46:40.846Z,24.94
2023-04-11T14:48:46.138Z,24.99
2023-04-11T14:50:51.194Z,25
2023-04-11T14:52:56.199Z,24.97
2023-04-11T14:55:01.249Z,24.97
2023-04-11T14:57:06.223Z,24.95
2023-04-11T14:59:11.313Z,24.94
2023-04-11T15:01:16.456Z,24.93
2023-04-11T15:03:21.685Z,24.92
2023-04-11T15:05:27.236Z,24.94
2023-04-11T15:07:32.269Z,24.94
2023-04-11T15:09:37.282Z,24.96
2023-04-11T15:11:42.300Z,24.96
2023-04-11T15:13:47.301Z,24.97
2023-04-11T15:15:52.340Z,24.96
2023-04-11T15:17:57.593Z,24.99
2023-04-11T15:20:02.995Z,24.99
2023-04-11T15:22:08.170Z,24.97
2023-04-11T15:24:13.167Z,24.99
2023-04-11T15:26:18.166Z,25
2023-04-11T15:28:23.168Z,25.05
2023-04-11T15:30:28.199Z,25.05
2023-04-11T15:32:33.179Z,25.05
2023-04-11T15:34:38.433Z,25.06
2023-04-11T15:36:43.407Z,25.1
2023-04-11T15:38:48.411Z,25.13
2023-04-11T15:40:53.445Z,25.16
2023-04-11T15:42:58.498Z,25.17
2023-04-11T15:45:03.499Z,25.17
2023-04-11T15:47:08.633Z,25.17
2023-04-11T15:49:14.098Z,25.18
2023-04-11T15:51:19.167Z,25.17
2023-04-11T15:53:24.196Z,25.13
2023-04-11T15:55:29.176Z,25.16
2023-04-11T15:57:34.206Z,25.14
2023-04-11T15:59:39.177Z,25.13
2023-04-11T16:01:44.264Z,25.08
2023-04-11T16:03:49.633Z,25.07
2023-04-11T16:05:55.128Z,25.11
2023-04-11T16:08:00.140Z,25.14
2023-04-11T16:10:05.339Z,25.18
2023-04-11T16:12:10.400Z,25.21
2023-04-11T16:14:15.406Z,25.22
2023-04-11T16:16:20.436Z,25.22
2023-04-11T16:18:25.597Z,25.21
2023-04-11T16:20:30.569Z,25.26
2023-04-11T16:22:35.537Z,25.31
2023-04-11T16:24:40.549Z,25.34
2023-04-11T16:26:45.599Z,25.35
2023-04-11T16:28:50.688Z,25.31
2023-04-11T16:30:56.470Z,25.3
2023-04-11T16:33:02.326Z,25.27
2023-04-11T16:35:07.492Z,25.28
2023-04-11T16:37:13.128Z,25.3
2023-04-11T16:39:18.284Z,25.32
2023-04-11T16:41:23.449Z,25.34
2023-04-11T16:43:28.566Z,25.35
2023-04-11T16:45:33.747Z,25.37
2023-04-11T16:47:38.910Z,25.38
2023-04-11T16:49:45.058Z,25.4
2023-04-11T16:51:51.066Z,25.39
2023-04-11T16:53:56.236Z,25.39
2023-04-11T16:56:01.903Z,25.42
2023-04-11T16:58:06.921Z,25.45
2023-04-11T17:00:11.930Z,25.48
2023-04-11T17:02:16.957Z,25.48
2023-04-11T17:04:22.479Z,25.49
2023-04-11T17:06:27.995Z,25.52
2023-04-11T17:08:33.072Z,25.51
2023-04-11T17:10:38.132Z,25.54
2023-04-11T17:12:43.290Z,25.6
2023-04-11T17:14:48.303Z,25.63
2023-04-11T17:16:53.354Z,25.65
2023-04-11T17:18:58.545Z,25.64
2023-04-11T17:21:03.637Z,25.65
2023-04-11T17:23:08.640Z,25.65
2023-04-11T17:25:13.679Z,25.66
2023-04-11T17:27:18.789Z,25.71
2023-04-11T17:29:23.797Z,25.75
2023-04-11T17:31:28.972Z,25.76
2023-04-11T17:33:34.327Z,25.78
2023-04-11T17:35:39.462Z,25.81
2023-04-11T17:37:44.690Z,25.79
2023-04-11T17:39:49.710Z,25.81
2023-04-11T17:41:54.765Z,25.81
2023-04-11T17:43:59.992Z,25.78
2023-04-11T17:46:05.379Z,25.73
2023-04-11T17:48:10.687Z,25.73
2023-04-11T17:50:15.942Z,25.71
2023-04-11T17:52:20.962Z,25.7
2023-04-11T17:54:28.868Z,25.69
2023-04-11T17:56:33.948Z,25.73
2023-04-11T17:58:39.060Z,25.72
2023-04-11T18:00:52.917Z,25.73
2023-04-11T18:03:01.284Z,25.7
2023-04-11T18:05:13.190Z,25.7
2023-04-11T18:07:28.978Z,25.78
2023-04-11T18:09:34.056Z,25.81
2023-04-11T18:11:39.118Z,25.83
2023-04-11T18:13:44.185Z,25.82
2023-04-11T18:15:53.385Z,25.83
2023-04-11T18:17:58.647Z,25.81
2023-04-11T18:20:03.860Z,25.8
2023-04-11T18:22:09.004Z,25.78
2023-04-11T18:24:14.011Z,25.77
2023-04-11T18:26:18.989Z,25.74
2023-04-11T18:28:24.033Z,25.75
2023-04-11T18:30:29.099Z,25.78
2023-04-11T18:32:38.559Z,25.75
2023-04-11T18:34:53.930Z,25.76
2023-04-11T18:36:59.059Z,25.73
2023-04-11T18:39:04.379Z,25.72
2023-04-11T18:41:09.740Z,25.73
2023-04-11T18:43:15.034Z,25.72
2023-04-11T18:45:20.139Z,25.74
2023-04-11T18:47:25.621Z,25.8
2023-04-11T18:49:31.733Z,25.8
2023-04-11T18:51:36.963Z,25.83
2023-04-11T18:53:42.000Z,25.82
2023-04-11T18:55:47.026Z,25.82
2023-04-11T18:57:54.164Z,25.84
2023-04-11T19:00:09.226Z,25.86
2023-04-11T19:02:21.362Z,25.87
2023-04-11T19:04:27.268Z,25.87
2023-04-11T19:06:33.381Z,25.89
2023-04-11T19:08:38.404Z,25.9
2023-04-11T19:10:43.584Z,25.91
2023-04-11T19:12:48.662Z,25.9
2023-04-11T19:14:53.757Z,25.9
2023-04-11T19:17:01.241Z,25.9
2023-04-11T19:19:06.329Z,25.89
2023-04-11T19:21:11.391Z,25.92
2023-04-11T19:23:16.443Z,25.93
2023-04-11T19:25:21.485Z,25.96
2023-04-11T19:27:26.568Z,25.97
2023-04-11T19:29:31.710Z,25.96
2023-04-11T19:31:36.791Z,25.99
2023-04-11T19:33:42.115Z,26
2023-04-11T19:35:47.159Z,26.02
2023-04-11T19:37:52.315Z,26.02
2023-04-11T19:39:57.446Z,26.01
2023-04-11T19:42:02.463Z,26
2023-04-11T19:44:07.525Z,26.01
2023-04-11T19:46:12.592Z,26
2023-04-11T19:48:17.857Z,26.01
2023-04-11T19:50:22.974Z,26.04
2023-04-11T19:52:27.981Z,26.04
2023-04-11T19:54:33.045Z,26.05
2023-04-11T19:56:38.056Z,26.05
2023-04-11T19:58:43.122Z,26.03
2023-04-11T20:00:48.182Z,26.01
2023-04-11T20:02:53.445Z,26.04
2023-04-11T20:04:59.290Z,26.07
2023-04-11T20:07:04.390Z,26.09
2023-04-11T20:09:09.454Z,26.09
2023-04-11T20:11:14.636Z,26.11
2023-04-11T20:13:19.678Z,26.1
2023-04-11T20:15:24.787Z,26.11
2023-04-11T20:17:29.845Z,26.14
2023-04-11T20:19:35.116Z,26.08
2023-04-11T20:21:40.191Z,26.09
2023-04-11T20:23:45.202Z,26.07
2023-04-11T20:25:50.249Z,26.05
2023-04-11T20:27:55.271Z,26.06
2023-04-11T20:30:00.407Z,26.08
2023-04-11T20:32:05.410Z,26.06
2023-04-11T20:34:10.412Z,26.03
2023-04-11T20:36:16.218Z,26.03
2023-04-11T20:38:21.442Z,26
2023-04-11T20:40:26.447Z,25.87
2023-04-11T20:42:31.502Z,25.7
2023-04-11T20:44:36.499Z,25.55
2023-04-11T20:46:41.630Z,25.4
2023-04-11T20:48:46.842Z,25.26
2023-04-11T20:50:51.938Z,25.15
2023-04-11T20:52:56.983Z,25.05
2023-04-11T20:55:01.978Z,24.95
2023-04-11T20:57:07.028Z,24.85
2023-04-11T20:59:12.100Z,24.77
2023-04-11T21:01:17.241Z,24.69
2023-04-11T21:03:22.465Z,24.64
2023-04-11T21:05:28.058Z,24.6
2023-04-11T21:07:33.270Z,24.54
2023-04-11T21:09:38.267Z,24.47
2023-04-11T21:11:43.275Z,24.43
2023-04-11T21:13:48.277Z,24.38
2023-04-11T21:15:53.290Z,24.33
2023-04-11T21:17:58.459Z,24.29
2023-04-11T21:20:03.789Z,24.25
2023-04-11T21:22:08.817Z,24.21
2023-04-11T21:24:13.813Z,24.17
2023-04-11T21:26:18.949Z,24.15
2023-04-11T21:28:24.008Z,24.12
2023-04-11T21:30:29.079Z,24.1
2023-04-11T21:32:34.181Z,24.07
2023-04-11T21:34:39.370Z,24.05
2023-04-11T21:36:44.376Z,24.03
2023-04-11T21:38:49.425Z,24.01
2023-04-11T21:40:54.461Z,23.98
2023-04-11T21:42:59.433Z,23.94
2023-04-11T21:45:04.481Z,23.91
2023-04-11T21:47:09.537Z,23.88
2023-04-11T21:49:14.524Z,23.87
2023-04-11T21:51:19.522Z,23.85
2023-04-11T21:53:24.661Z,23.83
2023-04-11T21:55:29.844Z,23.82
2023-04-11T21:57:34.913Z,23.82
2023-04-11T21:59:39.911Z,23.81
2023-04-11T22:01:44.972Z,23.77
2023-04-11T22:03:50.849Z,23.74
2023-04-11T22:05:56.509Z,23.73
2023-04-11T22:08:01.492Z,23.72
2023-04-11T22:10:06.467Z,23.71
2023-04-11T22:12:11.519Z,23.68
2023-04-11T22:14:16.583Z,23.66
2023-04-11T22:16:21.587Z,23.63
2023-04-11T22:18:27.068Z,23.61
2023-04-11T22:20:32.062Z,23.59
2023-04-11T22:22:37.070Z,23.55
2023-04-11T22:24:42.125Z,23.53
2023-04-11T22:26:47.115Z,23.5
2023-04-11T22:28:52.140Z,23.48
2023-04-11T22:30:57.220Z,23.48
2023-04-11T22:33:02.220Z,23.44
2023-04-11T22:35:07.463Z,23.43
2023-04-11T22:37:12.555Z,23.4
2023-04-11T22:39:17.549Z,23.35
2023-04-11T22:41:22.651Z,23.33
2023-04-11T22:43:27.622Z,23.32
2023-04-11T22:45:32.631Z,23.31
2023-04-11T22:47:37.826Z,23.28
2023-04-11T22:49:43.067Z,23.26
2023-04-11T22:51:48.170Z,23.24
2023-04-11T22:53:53.196Z,23.23
2023-04-11T22:55:58.631Z,23.22
2023-04-11T22:58:03.575Z,23.21
2023-04-11T23:00:08.778Z,23.2
2023-04-11T23:02:13.986Z,23.19
2023-04-11T23:04:19.463Z,23.18
2023-04-11T23:06:25.010Z,23.16
2023-04-11T23:08:30.008Z,23.13
2023-04-11T23:10:35.056Z,23.13
2023-04-11T23:12:40.098Z,23.1
2023-04-11T23:14:45.140Z,23.09
2023-04-11T23:16:50.164Z,23.07
2023-04-11T23:18:55.482Z,23.06
2023-04-11T23:21:00.683Z,23.03
2023-04-11T23:23:05.752Z,23.03
2023-04-11T23:25:10.736Z,23.02
2023-04-11T23:27:15.820Z,22.99
2023-04-11T23:29:20.849Z,22.98
2023-04-11T23:31:26.131Z,22.97
2023-04-11T23:33:31.432Z,22.96
2023-04-11T23:35:36.483Z,22.93
2023-04-11T23:37:41.691Z,22.91
2023-04-11T23:39:46.705Z,22.91
2023-04-11T23:41:51.735Z,22.92
2023-04-11T23:43:56.982Z,22.89
2023-04-11T23:46:02.751Z,22.88
2023-04-11T23:48:07.914Z,22.86
2023-04-11T23:50:13.113Z,22.84
2023-04-11T23:52:18.235Z,22.79
2023-04-11T23:54:23.224Z,22.8
2023-04-11T23:56:29.321Z,22.79
2023-04-11T23:58:34.451Z,22.77
